Time;durP1;ratioP1;P1;durP2;ratioP2;P2;SDS_P1;SDS_P2;PMS_P1;PMS_P2;Temp;Humidity;BMP_temperature;BMP_pressure;BME280_temperature;BME280_humidity;BME280_pressure;Samples;Min_cycle;Max_cycle;Signal;HPM_P1;HPM_P2
2022/10/31 00:00:17;;;;;;;12.82;9.43;;;12.90;99.90;;;;;;5032380;28;20087;-75
2022/10/31 00:02:42;;;;;;;12.50;9.68;;;12.80;99.90;;;;;;5033143;28;20120;-74
2022/10/31 00:05:08;;;;;;;12.27;9.85;;;12.70;99.90;;;;;;5031928;28;20021;-75
2022/10/31 00:07:34;;;;;;;13.05;8.70;;;12.60;99.90;;;;;;5030626;28;20530;-75
2022/10/31 00:09:59;;;;;;;11.00;8.48;;;12.70;99.90;;;;;;5026054;28;20033;-74
2022/10/31 00:12:26;;;;;;;9.13;7.30;;;12.70;99.90;;;;;;5031157;28;20049;-75
2022/10/31 00:14:51;;;;;;;11.25;8.27;;;12.60;99.90;;;;;;5031228;28;20124;-74
2022/10/31 00:17:17;;;;;;;9.65;7.40;;;12.60;99.90;;;;;;5031526;28;20576;-74
2022/10/31 00:19:43;;;;;;;11.13;8.57;;;12.70;99.90;;;;;;5029713;28;20514;-74
2022/10/31 00:22:08;;;;;;;12.80;9.65;;;12.70;99.90;;;;;;5028832;28;20029;-74
2022/10/31 00:24:34;;;;;;;14.43;11.00;;;12.70;99.90;;;;;;5029038;28;20044;-75
2022/10/31 00:26:59;;;;;;;15.65;11.25;;;12.60;99.90;;;;;;5032784;28;20029;-74
2022/10/31 00:29:25;;;;;;;13.27;9.27;;;12.60;99.90;;;;;;5032474;28;20049;-75
2022/10/31 00:31:52;;;;;;;13.90;10.50;;;12.60;99.90;;;;;;5027076;28;20139;-75
2022/10/31 00:34:18;;;;;;;17.75;11.63;;;12.60;99.90;;;;;;5031459;28;20025;-75
2022/10/31 00:36:43;;;;;;;15.82;11.75;;;12.60;99.90;;;;;;5028068;28;20040;-76
2022/10/31 00:39:09;;;;;;;16.48;11.00;;;12.70;99.90;;;;;;5033311;28;20039;-76
2022/10/31 00:41:34;;;;;;;17.55;12.80;;;12.70;99.90;;;;;;5029428;28;20029;-76
2022/10/31 00:44:00;;;;;;;15.30;11.13;;;12.70;99.90;;;;;;5029855;28;20030;-76
2022/10/31 00:46:26;;;;;;;15.63;11.02;;;12.80;99.90;;;;;;5027341;28;20530;-77
2022/10/31 00:48:51;;;;;;;14.18;10.85;;;12.80;99.90;;;;;;5029408;28;20037;-77
2022/10/31 00:51:17;;;;;;;13.10;9.73;;;12.80;99.90;;;;;;5029543;28;20150;-77
2022/10/31 00:53:43;;;;;;;15.25;10.75;;;12.80;99.90;;;;;;5029880;28;20029;-76
2022/10/31 00:56:09;;;;;;;14.73;9.15;;;12.80;99.90;;;;;;5028911;28;20030;-77
2022/10/31 00:58:35;;;;;;;13.32;9.23;;;12.80;99.90;;;;;;5027775;28;20052;-76
2022/10/31 01:01:00;;;;;;;16.95;10.85;;;12.80;99.90;;;;;;5026002;28;20086;-76
2022/10/31 01:03:29;;;;;;;14.20;9.60;;;12.80;99.90;;;;;;5026395;28;20034;-76
2022/10/31 01:06:01;;;;;;;11.57;9.00;;;12.70;99.90;;;;;;5030155;28;20028;-76
2022/10/31 01:08:27;;;;;;;11.15;8.50;;;12.70;99.90;;;;;;5031811;28;20041;-77
2022/10/31 01:11:28;;;;;;;14.48;9.25;;;12.70;99.90;;;;;;5027186;28;20109;-74
2022/10/31 01:13:54;;;;;;;13.38;9.57;;;12.70;99.90;;;;;;4940042;28;20050;-73
2022/10/31 01:16:22;;;;;;;14.52;10.63;;;12.70;99.90;;;;;;5010516;28;20754;-73
2022/10/31 01:18:48;;;;;;;14.98;10.10;;;12.70;99.90;;;;;;5010287;28;20048;-77
2022/10/31 01:21:20;;;;;;;15.25;9.65;;;12.70;99.90;;;;;;5029178;28;20033;-80
2022/10/31 01:23:46;;;;;;;19.13;10.75;;;12.70;99.90;;;;;;5029901;28;20144;-80
2022/10/31 01:26:24;;;;;;;15.57;10.98;;;12.70;99.90;;;;;;5030218;28;20088;-81
2022/10/31 01:28:55;;;;;;;11.60;9.23;;;12.60;99.90;;;;;;5030030;28;20461;-82
2022/10/31 01:31:23;;;;;;;9.73;8.10;;;12.60;99.90;;;;;;5027354;28;20038;-79
2022/10/31 01:33:49;;;;;;;10.93;8.50;;;12.60;99.90;;;;;;5028099;28;20033;-81
2022/10/31 01:36:17;;;;;;;10.27;8.43;;;12.50;99.90;;;;;;5027314;28;21999;-79
2022/10/31 01:38:43;;;;;;;9.40;7.28;;;12.50;99.90;;;;;;5027956;28;20472;-80
2022/10/31 01:41:11;;;;;;;8.23;6.80;;;12.50;99.90;;;;;;5031817;28;20059;-80
2022/10/31 01:43:50;;;;;;;8.80;7.22;;;12.50;99.90;;;;;;5029590;28;20079;-80
2022/10/31 01:46:20;;;;;;;10.07;7.00;;;12.50;99.90;;;;;;5027588;28;20129;-80
2022/10/31 01:48:47;;;;;;;9.13;6.65;;;12.50;99.90;;;;;;5026874;28;20088;-77
2022/10/31 01:51:16;;;;;;;9.05;7.22;;;12.40;99.90;;;;;;5027690;28;20056;-76
2022/10/31 01:53:43;;;;;;;7.90;6.55;;;12.40;99.90;;;;;;5026788;28;20025;-81
2022/10/31 01:56:10;;;;;;;9.07;7.05;;;12.40;99.90;;;;;;5029412;28;20681;-78
2022/10/31 01:58:35;;;;;;;13.68;7.70;;;12.40;99.90;;;;;;5029543;28;20040;-78
2022/10/31 02:01:01;;;;;;;9.73;7.68;;;12.50;99.90;;;;;;5026721;28;20029;-79
2022/10/31 02:03:28;;;;;;;9.32;7.57;;;12.50;99.90;;;;;;5028255;28;20040;-79
2022/10/31 02:05:55;;;;;;;12.10;8.52;;;12.50;99.90;;;;;;5027886;28;20033;-79
2022/10/31 02:08:32;;;;;;;10.32;7.75;;;12.40;99.90;;;;;;5026078;28;20037;-79
2022/10/31 02:10:59;;;;;;;14.55;8.40;;;12.40;99.90;;;;;;5031104;28;20043;-80
2022/10/31 02:13:27;;;;;;;11.27;7.65;;;12.40;99.90;;;;;;5028664;28;20032;-79
2022/10/31 02:15:55;;;;;;;12.48;7.68;;;12.40;99.90;;;;;;5018220;28;20041;-79
2022/10/31 02:18:22;;;;;;;13.45;8.15;;;12.50;99.90;;;;;;5028707;28;20068;-79
2022/10/31 02:20:53;;;;;;;9.88;7.53;;;12.50;99.90;;;;;;5010118;28;20576;-79
2022/10/31 02:23:44;;;;;;;11.70;8.00;;;12.50;99.90;;;;;;5028407;28;20443;-78
2022/10/31 02:26:28;;;;;;;11.98;7.57;;;12.50;99.90;;;;;;5030181;28;20136;-78
2022/10/31 02:29:12;;;;;;;14.55;7.82;;;12.40;99.90;;;;;;5029584;28;20048;-79
2022/10/31 02:32:02;;;;;;;14.30;8.25;;;12.40;99.90;;;;;;5024891;28;20026;-79
2022/10/31 02:35:04;;;;;;;12.77;8.88;;;12.40;99.90;;;;;;5030700;28;20029;-79
2022/10/31 02:37:34;;;;;;;;;;;12.40;99.90;;;;;;5027600;28;20033;-79
2022/10/31 02:40:15;;;;;;;12.45;8.77;;;12.40;99.90;;;;;;5025508;28;20015;-79
2022/10/31 02:42:56;;;;;;;13.60;8.68;;;12.50;99.90;;;;;;5031674;28;20030;-79
2022/10/31 02:45:55;;;;;;;14.57;8.77;;;12.50;99.90;;;;;;5024491;28;20033;-79
2022/10/31 02:48:26;;;;;;;15.43;8.80;;;12.50;99.90;;;;;;5010395;28;20583;-79
2022/10/31 02:51:00;;;;;;;25.52;9.23;;;12.40;99.90;;;;;;5030468;28;20025;-79
2022/10/31 02:53:26;;;;;;;14.13;9.73;;;12.40;99.90;;;;;;5024663;28;20037;-73
2022/10/31 02:56:10;;;;;;;14.23;9.00;;;12.40;99.90;;;;;;5032521;28;20045;-73
2022/10/31 02:58:41;;;;;;;13.07;7.88;;;12.40;99.90;;;;;;5024851;28;21138;-73
2022/10/31 03:01:15;;;;;;;16.27;7.50;;;12.40;99.90;;;;;;5025502;28;20587;-73
2022/10/31 03:03:48;;;;;;;10.15;7.47;;;12.30;99.90;;;;;;5026091;28;20160;-73
2022/10/31 03:06:33;;;;;;;;;;;12.30;99.90;;;;;;5026034;28;20017;-73
2022/10/31 03:09:02;;;;;;;10.25;7.05;;;12.40;99.90;;;;;;5023905;28;19921;-73
2022/10/31 03:11:37;;;;;;;9.50;7.07;;;12.30;99.90;;;;;;5027031;28;20045;-73
2022/10/31 03:14:28;;;;;;;12.18;7.25;;;12.30;99.90;;;;;;5026716;28;20061;-73
2022/10/31 03:16:58;;;;;;;10.40;7.40;;;12.30;99.90;;;;;;5028944;28;20049;-73
2022/10/31 03:19:31;;;;;;;11.02;7.38;;;12.30;99.90;;;;;;5030496;28;20037;-73
2022/10/31 03:22:04;;;;;;;11.32;7.72;;;12.30;99.90;;;;;;5027542;28;20053;-73
2022/10/31 03:24:35;;;;;;;11.88;7.43;;;12.30;99.90;;;;;;5023200;28;20034;-73
2022/10/31 03:27:01;;;;;;;12.27;7.78;;;12.30;99.90;;;;;;5026564;28;20112;-73
2022/10/31 03:29:32;;;;;;;13.05;7.97;;;12.40;99.90;;;;;;5032419;28;20130;-73
2022/10/31 03:32:02;;;;;;;14.82;8.77;;;12.40;99.90;;;;;;5022163;28;20746;-73
2022/10/31 03:34:30;;;;;;;12.80;8.85;;;12.40;99.90;;;;;;5034350;28;20029;-73
2022/10/31 03:36:59;;;;;;;15.68;9.00;;;12.40;99.90;;;;;;5036914;28;20032;-73
2022/10/31 03:39:26;;;;;;;13.13;9.18;;;12.40;99.90;;;;;;5029787;28;20080;-73
2022/10/31 03:42:14;;;;;;;15.40;9.15;;;12.40;99.90;;;;;;5032716;28;20033;-73
2022/10/31 03:44:44;;;;;;;14.85;9.38;;;12.40;99.90;;;;;;5034377;28;20120;-73
2022/10/31 03:47:10;;;;;;;17.63;10.18;;;12.40;99.90;;;;;;5035740;28;20016;-73
2022/10/31 03:49:35;;;;;;;13.15;9.27;;;12.40;99.90;;;;;;5033062;28;20486;-73
2022/10/31 03:52:22;;;;;;;21.13;10.27;;;12.40;99.90;;;;;;5039128;28;20033;-79
2022/10/31 03:54:55;;;;;;;14.30;9.50;;;12.40;99.90;;;;;;5030149;28;20040;-79
2022/10/31 03:57:37;;;;;;;15.95;9.68;;;12.30;99.90;;;;;;5040260;28;20120;-79
2022/10/31 04:00:07;;;;;;;16.85;10.48;;;12.30;99.90;;;;;;5035126;28;20018;-78
2022/10/31 04:02:37;;;;;;;18.77;10.80;;;12.30;99.90;;;;;;5036692;28;20690;-79
2022/10/31 04:05:04;;;;;;;18.50;11.48;;;12.30;99.90;;;;;;5033480;28;20043;-80
2022/10/31 04:07:34;;;;;;;21.17;11.68;;;12.30;99.90;;;;;;5033063;28;20034;-79
2022/10/31 04:10:04;;;;;;;18.42;11.60;;;12.40;99.90;;;;;;5033294;28;20614;-73
2022/10/31 04:12:32;;;;;;;18.92;12.38;;;12.30;99.90;;;;;;5036335;28;20064;-73
2022/10/31 04:15:00;;;;;;;16.88;11.77;;;12.30;99.90;;;;;;5037790;28;20568;-73
2022/10/31 04:17:30;;;;;;;16.85;11.85;;;12.30;99.90;;;;;;5038270;28;20061;-73
2022/10/31 04:19:58;;;;;;;19.42;12.18;;;12.40;99.90;;;;;;5035637;28;20025;-73
2022/10/31 04:22:24;;;;;;;19.52;11.90;;;12.30;99.90;;;;;;5037910;28;20049;-73
2022/10/31 04:24:49;;;;;;;18.48;12.57;;;12.30;99.90;;;;;;5034445;28;20057;-73
2022/10/31 04:27:15;;;;;;;20.23;12.82;;;12.30;99.90;;;;;;5021849;28;20014;-73
2022/10/31 04:29:41;;;;;;;19.55;14.02;;;12.30;99.90;;;;;;5031195;28;20063;-73
2022/10/31 04:32:06;;;;;;;20.45;13.43;;;12.40;99.90;;;;;;5031356;28;20017;-73
2022/10/31 04:34:32;;;;;;;20.48;12.40;;;12.40;99.90;;;;;;5036130;28;20429;-73
2022/10/31 04:36:57;;;;;;;21.52;13.32;;;12.50;99.90;;;;;;5032715;28;20047;-73
2022/10/31 04:39:23;;;;;;;23.95;13.23;;;12.40;99.90;;;;;;5035740;28;20086;-73
2022/10/31 04:41:48;;;;;;;17.63;12.52;;;12.40;99.90;;;;;;5029369;28;20025;-74
2022/10/31 04:44:15;;;;;;;21.80;13.65;;;12.40;99.90;;;;;;5027805;28;20087;-73
2022/10/31 04:46:41;;;;;;;19.67;13.07;;;12.40;99.90;;;;;;5026192;28;20050;-73
2022/10/31 04:49:06;;;;;;;19.95;13.18;;;12.40;99.90;;;;;;5031637;28;20033;-73
2022/10/31 04:51:32;;;;;;;27.25;13.70;;;12.40;99.90;;;;;;5025367;28;20057;-73
2022/10/31 04:53:57;;;;;;;20.02;13.00;;;12.50;99.90;;;;;;5029739;28;20712;-73
2022/10/31 04:56:23;;;;;;;20.48;14.50;;;12.40;99.90;;;;;;5030722;28;20021;-73
2022/10/31 04:58:48;;;;;;;22.83;14.23;;;12.40;99.90;;;;;;5030093;28;20079;-73
2022/10/31 05:01:14;;;;;;;20.35;14.27;;;12.50;99.90;;;;;;5026870;28;20107;-73
2022/10/31 05:03:39;;;;;;;21.33;14.98;;;12.50;99.90;;;;;;5028840;28;20037;-73
2022/10/31 05:06:06;;;;;;;21.73;13.88;;;12.50;99.90;;;;;;5027734;28;20565;-73
2022/10/31 05:08:32;;;;;;;24.98;15.38;;;12.60;99.90;;;;;;5034024;28;20140;-74
2022/10/31 05:11:04;;;;;;;21.20;14.40;;;12.60;99.90;;;;;;5028635;28;20116;-73
2022/10/31 05:13:30;;;;;;;21.98;14.35;;;12.60;99.90;;;;;;5030278;28;20040;-73
2022/10/31 05:15:55;;;;;;;21.02;15.20;;;12.60;99.90;;;;;;5025963;28;20041;-73
2022/10/31 05:18:21;;;;;;;24.75;14.60;;;12.60;99.90;;;;;;5032292;28;20036;-73
2022/10/31 05:20:47;;;;;;;23.67;15.88;;;12.60;99.90;;;;;;5028028;28;20033;-73
2022/10/31 05:23:12;;;;;;;24.05;15.52;;;12.70;99.90;;;;;;5032493;28;20033;-73
2022/10/31 05:25:40;;;;;;;30.95;16.52;;;12.60;99.90;;;;;;5029802;28;20037;-73
2022/10/31 05:28:05;;;;;;;24.15;15.77;;;12.60;99.90;;;;;;5031863;28;20144;-73
2022/10/31 05:30:32;;;;;;;24.83;16.52;;;12.60;99.90;;;;;;5029740;28;20147;-73
2022/10/31 05:32:58;;;;;;;26.67;16.17;;;12.60;99.90;;;;;;5027733;28;20494;-73
2022/10/31 05:35:30;;;;;;;28.88;15.73;;;12.60;99.90;;;;;;5033652;28;20116;-73
2022/10/31 05:37:57;;;;;;;28.63;16.75;;;12.60;99.90;;;;;;5039923;28;20171;-73
2022/10/31 05:40:24;;;;;;;22.42;15.70;;;12.60;99.90;;;;;;5027111;28;20040;-73
2022/10/31 05:42:54;;;;;;;26.33;16.05;;;12.60;99.90;;;;;;5033904;28;20025;-73
2022/10/31 05:45:21;;;;;;;35.22;17.30;;;12.60;99.90;;;;;;5039889;28;20040;-74
2022/10/31 05:47:58;;;;;;;23.02;15.38;;;12.60;99.90;;;;;;5019061;28;20136;-73
2022/10/31 05:50:25;;;;;;;29.15;17.73;;;12.60;99.90;;;;;;5037380;28;20093;-73
2022/10/31 05:53:04;;;;;;;33.72;17.83;;;12.60;99.90;;;;;;5034420;28;20705;-72
2022/10/31 05:55:30;;;;;;;32.88;17.60;;;12.70;99.90;;;;;;5039745;28;20032;-73
2022/10/31 05:57:56;;;;;;;25.75;16.67;;;12.70;99.90;;;;;;5040263;28;20025;-73
2022/10/31 06:00:24;;;;;;;28.08;17.17;;;12.70;99.90;;;;;;5041266;28;20029;-73
2022/10/31 06:02:56;;;;;;;24.77;16.55;;;12.60;99.90;;;;;;5039698;28;20021;-73
2022/10/31 06:05:22;;;;;;;27.67;16.65;;;12.60;99.90;;;;;;5036735;28;20057;-73
2022/10/31 06:07:48;;;;;;;25.13;17.27;;;12.60;99.90;;;;;;5038587;28;20037;-73
2022/10/31 06:10:13;;;;;;;21.33;15.35;;;12.60;99.90;;;;;;5036934;28;20032;-73
2022/10/31 06:12:40;;;;;;;24.83;16.45;;;12.70;99.90;;;;;;5035818;28;20086;-73
2022/10/31 06:15:07;;;;;;;26.98;16.77;;;12.80;99.90;;;;;;5021849;28;20055;-73
2022/10/31 06:17:34;;;;;;;23.92;16.27;;;12.80;99.90;;;;;;5039542;28;20056;-72
2022/10/31 06:20:00;;;;;;;26.05;16.73;;;12.80;99.90;;;;;;5039188;28;20029;-70
2022/10/31 06:22:25;;;;;;;25.30;16.98;;;12.80;99.90;;;;;;5041810;28;20079;-71
2022/10/31 06:24:51;;;;;;;26.52;16.42;;;12.80;99.90;;;;;;5043445;28;20033;-72
2022/10/31 06:27:17;;;;;;;26.13;16.88;;;12.90;99.90;;;;;;5041537;28;20076;-72
2022/10/31 06:29:42;;;;;;;24.00;16.83;;;12.90;99.90;;;;;;5033768;28;20045;-71
2022/10/31 06:32:11;;;;;;;26.67;17.25;;;12.80;99.90;;;;;;5041189;28;20033;-71
2022/10/31 06:34:37;;;;;;;28.75;17.65;;;12.80;99.90;;;;;;5034176;28;20052;-72
2022/10/31 06:37:03;;;;;;;25.60;16.90;;;12.90;99.90;;;;;;5033394;28;21046;-73
2022/10/31 06:39:28;;;;;;;29.38;17.45;;;12.90;99.90;;;;;;5029255;28;20044;-72
2022/10/31 06:41:54;;;;;;;26.77;17.67;;;12.90;99.90;;;;;;5030566;28;20339;-75
2022/10/31 06:44:20;;;;;;;28.42;17.95;;;12.90;99.90;;;;;;5029859;28;20017;-76
2022/10/31 06:46:48;;;;;;;28.02;17.35;;;12.90;99.90;;;;;;5027931;28;20041;-76
2022/10/31 06:49:14;;;;;;;26.15;17.13;;;12.90;99.90;;;;;;5025353;28;20033;-76
2022/10/31 06:51:39;;;;;;;29.33;18.20;;;12.90;99.90;;;;;;5027404;28;20033;-76
2022/10/31 06:54:05;;;;;;;33.70;18.42;;;13.00;99.90;;;;;;5027686;28;20059;-76
2022/10/31 06:56:30;;;;;;;32.97;18.63;;;13.00;99.90;;;;;;5028137;28;20030;-76
2022/10/31 06:58:56;;;;;;;31.60;19.08;;;12.90;99.90;;;;;;5031588;28;20474;-77
2022/10/31 07:01:21;;;;;;;35.03;20.35;;;13.00;99.90;;;;;;5028118;28;20482;-77
2022/10/31 07:03:47;;;;;;;37.17;20.88;;;13.00;99.90;;;;;;5032587;28;20026;-77
2022/10/31 07:06:13;;;;;;;32.15;19.60;;;13.00;99.90;;;;;;5029450;28;20025;-74
2022/10/31 07:08:38;;;;;;;32.58;19.27;;;13.00;99.90;;;;;;5029055;28;20390;-75
2022/10/31 07:11:04;;;;;;;31.08;18.75;;;13.10;99.90;;;;;;5028855;28;20052;-75
2022/10/31 07:13:29;;;;;;;28.65;18.27;;;13.00;99.90;;;;;;5030870;28;20270;-75
2022/10/31 07:16:00;;;;;;;25.98;16.42;;;13.00;99.90;;;;;;5029794;28;20413;-76
2022/10/31 07:18:26;;;;;;;33.15;20.02;;;13.00;99.90;;;;;;5029878;28;20032;-78
2022/10/31 07:20:52;;;;;;;34.00;19.48;;;13.00;99.90;;;;;;5032710;28;20032;-75
2022/10/31 07:23:18;;;;;;;33.72;21.33;;;13.10;99.90;;;;;;5025427;28;20033;-77
2022/10/31 07:25:44;;;;;;;34.55;21.08;;;13.20;99.90;;;;;;5028122;28;20075;-80
2022/10/31 07:28:10;;;;;;;31.02;18.17;;;13.10;99.90;;;;;;5027659;28;20037;-81
2022/10/31 07:30:36;;;;;;;29.67;17.10;;;13.10;99.90;;;;;;5026302;28;20147;-80
2022/10/31 07:33:02;;;;;;;24.85;16.83;;;13.10;99.90;;;;;;5030386;28;20044;-80
2022/10/31 07:35:29;;;;;;;28.90;17.75;;;13.10;99.90;;;;;;5029802;28;20246;-80
2022/10/31 07:37:55;;;;;;;25.13;16.00;;;13.10;99.90;;;;;;5027076;28;20022;-80
2022/10/31 07:40:22;;;;;;;25.40;16.15;;;13.10;99.90;;;;;;5029000;28;20068;-80
2022/10/31 07:42:50;;;;;;;25.83;18.38;;;13.10;99.90;;;;;;5024637;28;20509;-81
2022/10/31 07:45:18;;;;;;;27.55;20.13;;;13.10;99.90;;;;;;5008037;28;20437;-81
2022/10/31 07:47:45;;;;;;;24.98;16.98;;;13.10;99.90;;;;;;5027454;28;20072;-79
2022/10/31 07:50:13;;;;;;;24.85;16.52;;;13.10;99.90;;;;;;5010513;28;20041;-80
2022/10/31 07:52:39;;;;;;;20.15;14.93;;;13.10;99.90;;;;;;5025240;28;20025;-69
2022/10/31 07:55:06;;;;;;;20.17;15.88;;;13.10;99.90;;;;;;5029659;28;20045;-80
2022/10/31 07:57:32;;;;;;;23.27;15.95;;;13.20;99.90;;;;;;5032655;28;20017;-77
2022/10/31 07:59:57;;;;;;;26.63;18.02;;;13.20;99.90;;;;;;5026164;28;20021;-71
2022/10/31 08:02:23;;;;;;;28.35;18.50;;;13.30;99.90;;;;;;5029533;28;20478;-71
2022/10/31 08:04:49;;;;;;;26.10;17.88;;;13.30;99.90;;;;;;5031432;28;20063;-71
2022/10/31 08:07:15;;;;;;;29.58;19.75;;;13.30;99.90;;;;;;5009386;28;20454;-71
2022/10/31 08:09:41;;;;;;;31.10;18.63;;;13.30;99.90;;;;;;5021587;28;20048;-71
2022/10/31 08:12:06;;;;;;;32.58;19.75;;;13.20;99.90;;;;;;5024553;28;20045;-71
2022/10/31 08:14:32;;;;;;;28.38;18.55;;;13.20;99.90;;;;;;5007098;28;20025;-71
2022/10/31 08:16:57;;;;;;;29.02;18.80;;;13.20;99.90;;;;;;5027858;28;20041;-71
2022/10/31 08:19:23;;;;;;;32.65;19.23;;;13.30;99.90;;;;;;5031036;28;20032;-71
2022/10/31 08:21:54;;;;;;;34.85;19.77;;;13.20;99.90;;;;;;5031404;28;20030;-72
2022/10/31 08:24:20;;;;;;;32.22;19.17;;;13.20;99.90;;;;;;5027461;28;20087;-70
2022/10/31 08:26:46;;;;;;;32.92;20.20;;;13.20;99.90;;;;;;5028837;28;20022;-71
2022/10/31 08:29:12;;;;;;;30.27;19.45;;;13.20;99.90;;;;;;5026135;28;20053;-71
2022/10/31 08:31:38;;;;;;;28.48;18.60;;;13.20;99.90;;;;;;5030390;28;20130;-71
2022/10/31 08:34:04;;;;;;;25.13;17.70;;;13.30;99.90;;;;;;5028741;28;20505;-71
2022/10/31 08:36:29;;;;;;;25.25;15.40;;;13.20;99.90;;;;;;5028007;28;20063;-71
2022/10/31 08:38:55;;;;;;;22.33;16.25;;;13.30;99.90;;;;;;5030224;28;20030;-71
2022/10/31 08:41:21;;;;;;;22.25;15.52;;;13.30;99.90;;;;;;5032130;28;20057;-71
2022/10/31 08:43:47;;;;;;;23.13;16.70;;;13.30;99.90;;;;;;5028193;28;20120;-70
2022/10/31 08:46:13;;;;;;;21.45;14.88;;;13.40;99.90;;;;;;5029848;28;20057;-70
2022/10/31 08:48:38;;;;;;;25.05;16.80;;;13.40;99.90;;;;;;5030489;28;20585;-71
2022/10/31 08:51:04;;;;;;;27.02;17.17;;;13.40;99.90;;;;;;5028271;28;20140;-71
2022/10/31 08:53:30;;;;;;;27.90;16.60;;;13.40;99.90;;;;;;5031476;28;20634;-71
2022/10/31 08:55:56;;;;;;;24.10;16.80;;;13.40;99.90;;;;;;5028688;28;20523;-72
2022/10/31 08:58:23;;;;;;;22.15;16.17;;;13.40;99.90;;;;;;5029976;28;20033;-71
2022/10/31 09:00:51;;;;;;;24.67;18.13;;;13.40;99.90;;;;;;5027889;28;20469;-71
2022/10/31 09:03:20;;;;;;;27.50;18.65;;;13.50;99.90;;;;;;5029938;28;20079;-72
2022/10/31 09:05:46;;;;;;;38.67;23.90;;;13.50;99.90;;;;;;5012530;28;20658;-72
2022/10/31 09:08:12;;;;;;;22.83;16.38;;;13.50;99.90;;;;;;5030480;28;20047;-72
2022/10/31 09:10:38;;;;;;;25.60;18.25;;;13.50;99.90;;;;;;5026701;28;20045;-71
2022/10/31 09:13:12;;;;;;;60.10;40.33;;;13.40;99.90;;;;;;5027581;28;20055;-71
2022/10/31 09:15:41;;;;;;;27.02;17.60;;;13.40;99.90;;;;;;5029264;28;20128;-78
2022/10/31 09:18:08;;;;;;;24.52;16.65;;;13.40;99.90;;;;;;5026429;28;20483;-78
2022/10/31 09:20:35;;;;;;;26.80;17.45;;;13.40;99.90;;;;;;5029686;28;20033;-80
2022/10/31 09:23:11;;;;;;;26.95;18.58;;;13.40;99.90;;;;;;5033929;28;20385;-78
2022/10/31 09:25:37;;;;;;;26.80;18.25;;;13.50;99.90;;;;;;5030178;28;20029;-79
2022/10/31 09:28:04;;;;;;;30.50;20.45;;;13.50;99.90;;;;;;5029758;28;20104;-77
2022/10/31 09:30:32;;;;;;;27.67;18.65;;;13.50;99.90;;;;;;5008377;28;20052;-77
2022/10/31 09:33:00;;;;;;;28.95;21.00;;;13.50;99.90;;;;;;5030585;28;20036;-76
2022/10/31 09:35:27;;;;;;;27.55;19.38;;;13.50;99.90;;;;;;5027741;28;20028;-72
2022/10/31 09:37:57;;;;;;;30.75;20.52;;;13.50;99.90;;;;;;5025113;28;20627;-71
2022/10/31 09:40:31;;;;;;;26.30;18.55;;;13.50;99.90;;;;;;5024740;28;21256;-71
2022/10/31 09:43:17;;;;;;;27.38;18.90;;;13.50;99.90;;;;;;5029378;28;20035;-71
2022/10/31 09:45:51;;;;;;;30.40;18.88;;;13.50;99.90;;;;;;5029798;28;20021;-72
2022/10/31 09:48:54;;;;;;;27.48;18.85;;;13.50;99.90;;;;;;5032834;28;20086;-72
2022/10/31 09:51:29;;;;;;;33.22;23.77;;;13.40;99.90;;;;;;5026303;28;20033;-71
2022/10/31 09:54:10;;;;;;;27.30;19.30;;;13.40;99.90;;;;;;5026435;28;22220;-72
2022/10/31 09:56:36;;;;;;;28.85;19.08;;;13.50;99.90;;;;;;5023439;28;20025;-71
2022/10/31 09:59:05;;;;;;;28.73;18.85;;;13.50;99.90;;;;;;5027519;28;20029;-71
2022/10/31 10:01:39;;;;;;;32.13;19.65;;;13.50;99.90;;;;;;5024255;28;20533;-71
2022/10/31 10:04:29;;;;;;;33.80;20.52;;;13.50;99.90;;;;;;5027932;28;20021;-71
2022/10/31 10:06:55;;;;;;;29.90;19.88;;;13.50;99.90;;;;;;5025808;28;20025;-71
2022/10/31 10:09:25;;;;;;;28.77;20.60;;;13.50;99.90;;;;;;5030174;28;20676;-69
2022/10/31 10:12:21;;;;;;;29.90;20.23;;;13.50;99.90;;;;;;5031121;28;20652;-74
2022/10/31 10:15:04;;;;;;;30.75;20.08;;;13.50;99.90;;;;;;5028844;28;20037;-76
2022/10/31 10:18:07;;;;;;;30.90;20.90;;;13.70;99.90;;;;;;5028680;28;20049;-76
2022/10/31 10:20:41;;;;;;;29.80;19.30;;;13.70;99.90;;;;;;4983305;28;20045;-75
2022/10/31 10:23:37;;;;;;;30.50;19.08;;;13.70;99.90;;;;;;5031511;28;20387;-77
2022/10/31 10:26:11;;;;;;;28.52;19.23;;;13.70;99.90;;;;;;5026636;28;20052;-74
2022/10/31 10:28:40;;;;;;;31.52;20.73;;;13.70;99.90;;;;;;5031684;28;20953;-77
2022/10/31 10:31:18;;;;;;;51.33;35.78;;;13.70;99.90;;;;;;5010718;28;20041;-78
2022/10/31 10:34:11;;;;;;;31.63;20.08;;;13.70;99.90;;;;;;5028769;28;20509;-77
2022/10/31 10:36:50;;;;;;;25.55;17.95;;;13.80;99.90;;;;;;5029108;28;20490;-78
2022/10/31 10:39:39;;;;;;;25.20;17.33;;;13.80;99.90;;;;;;5031569;28;20029;-77
2022/10/31 10:47:44;;;;;;;25.40;17.35;;;13.80;99.90;;;;;;5027350;28;20044;-76
2022/10/31 10:50:20;;;;;;;25.70;17.75;;;13.70;99.90;;;;;;5027525;28;20034;-74
2022/10/31 10:53:20;;;;;;;24.25;18.60;;;13.70;99.90;;;;;;5025146;28;20083;-75
2022/10/31 10:56:05;;;;;;;24.60;19.55;;;13.60;99.90;;;;;;5026812;28;20092;-74
2022/10/31 10:58:30;;;;;;;25.20;18.13;;;13.70;99.90;;;;;;5012277;28;20039;-74
2022/10/31 11:00:56;;;;;;;23.20;16.70;;;13.80;99.90;;;;;;5024393;28;20037;-75
2022/10/31 11:03:21;;;;;;;21.17;16.00;;;13.80;99.90;;;;;;5026857;28;20025;-75
2022/10/31 11:05:55;;;;;;;22.27;15.48;;;13.80;99.90;;;;;;5025265;28;20033;-75
2022/10/31 11:08:29;;;;;;;23.42;16.08;;;13.80;99.90;;;;;;5031764;28;20037;-75
2022/10/31 11:11:07;;;;;;;22.75;16.50;;;13.80;99.90;;;;;;5014543;28;20112;-75
2022/10/31 11:13:34;;;;;;;24.08;16.63;;;13.80;99.90;;;;;;5022760;28;20524;-73
2022/10/31 11:16:01;;;;;;;23.42;16.80;;;13.70;99.90;;;;;;5029187;28;20084;-73
2022/10/31 11:18:30;;;;;;;21.88;16.05;;;13.70;99.90;;;;;;5026177;28;20035;-74
2022/10/31 11:20:59;;;;;;;22.50;15.77;;;13.80;99.90;;;;;;5030881;28;20105;-74
2022/10/31 11:23:26;;;;;;;22.88;17.02;;;13.80;99.90;;;;;;5026839;28;20037;-74
2022/10/31 11:26:05;;;;;;;24.50;16.83;;;13.80;99.90;;;;;;5028111;28;20741;-74
2022/10/31 11:28:34;;;;;;;27.27;19.50;;;13.80;99.90;;;;;;5027451;28;20670;-72
2022/10/31 11:31:05;;;;;;;26.33;17.17;;;13.70;99.90;;;;;;5029008;28;20029;-74
2022/10/31 11:33:34;;;;;;;36.53;18.73;;;13.80;99.90;;;;;;5009017;28;20079;-75
2022/10/31 11:36:03;;;;;;;28.90;18.25;;;13.80;99.90;;;;;;5010318;28;20100;-76
2022/10/31 11:38:35;;;;;;;25.60;17.48;;;13.90;99.90;;;;;;5024569;28;20041;-76
2022/10/31 11:41:08;;;;;;;25.67;18.42;;;13.90;99.90;;;;;;5033235;28;20025;-75
2022/10/31 11:43:34;;;;;;;31.70;18.92;;;14.00;99.90;;;;;;5025775;28;20056;-76
2022/10/31 11:46:09;;;;;;;27.58;18.95;;;14.00;99.90;;;;;;5026517;28;20049;-75
2022/10/31 11:48:35;;;;;;;27.85;17.08;;;14.00;99.90;;;;;;5025484;28;20065;-77
2022/10/31 11:51:01;;;;;;;60.55;18.65;;;14.00;99.90;;;;;;5027147;28;20021;-81
2022/10/31 11:53:29;;;;;;;25.70;18.08;;;14.00;99.90;;;;;;5031632;28;22064;-76
2022/10/31 11:56:13;;;;;;;25.58;17.13;;;14.00;99.90;;;;;;5015353;28;20450;-77
2022/10/31 11:58:39;;;;;;;28.10;18.40;;;13.90;99.90;;;;;;5030099;28;20033;-78
2022/10/31 12:01:19;;;;;;;25.52;18.40;;;13.80;99.90;;;;;;5027374;28;20021;-79
2022/10/31 12:03:57;;;;;;;26.17;18.45;;;13.70;99.90;;;;;;5027408;28;20035;-79
2022/10/31 12:06:36;;;;;;;31.85;19.60;;;13.70;99.90;;;;;;5025508;28;20024;-78
2022/10/31 12:09:08;;;;;;;31.52;20.30;;;13.80;99.90;;;;;;5030386;28;20034;-78
2022/10/31 12:11:46;;;;;;;30.70;18.30;;;13.90;99.90;;;;;;5027897;28;20030;-78
2022/10/31 12:14:44;;;;;;;26.70;18.05;;;13.90;99.90;;;;;;5024984;28;20065;-76
2022/10/31 12:17:28;;;;;;;28.20;17.60;;;13.90;99.90;;;;;;5027943;28;20092;-75
2022/10/31 12:20:12;;;;;;;23.98;17.05;;;13.90;99.90;;;;;;5030517;28;20026;-79
2022/10/31 12:22:44;;;;;;;28.23;17.63;;;14.00;99.90;;;;;;5030737;28;20080;-80
2022/10/31 12:25:55;;;;;;;24.27;17.52;;;13.90;99.90;;;;;;5026621;28;20025;-79
2022/10/31 12:28:42;;;;;;;24.23;17.00;;;13.90;99.90;;;;;;4955160;28;20241;-78
2022/10/31 12:31:13;;;;;;;29.92;19.85;;;13.90;99.90;;;;;;5023913;28;20411;-76
2022/10/31 12:34:01;;;;;;;30.43;18.87;;;14.00;99.90;;;;;;5031519;28;20029;-77
2022/10/31 12:36:37;;;;;;;24.52;18.05;;;14.00;99.90;;;;;;5030445;28;20278;-77
2022/10/31 12:39:09;;;;;;;28.13;19.33;;;13.90;99.90;;;;;;5029792;28;20068;-76
2022/10/31 12:41:40;;;;;;;26.08;18.45;;;13.90;99.90;;;;;;5034884;28;20053;-76
2022/10/31 12:44:25;;;;;;;24.23;17.25;;;13.90;99.90;;;;;;5029105;28;20147;-76
2022/10/31 12:47:00;;;;;;;27.88;18.50;;;13.90;99.90;;;;;;5035124;28;20033;-74
2022/10/31 12:49:40;;;;;;;23.67;18.00;;;14.00;99.90;;;;;;5029881;28;20080;-75
2022/10/31 12:52:27;;;;;;;30.15;19.70;;;14.00;99.90;;;;;;5034118;28;20029;-74